sensor_id;sensor_type;location;lat;lon;timestamp;P1;durP1;ratioP1;P2;durP2;ratioP2
42726;SDS011;28372;56.832;60.658;2023-05-21T00:02:26;110.93;;;52.60;;
42726;SDS011;28372;56.832;60.658;2023-05-21T00:04:56;126.13;;;59.20;;
42726;SDS011;28372;56.832;60.658;2023-05-21T00:07:23;101.18;;;44.13;;
42726;SDS011;28372;56.832;60.658;2023-05-21T00:09:51;85.95;;;38.63;;
42726;SDS011;28372;56.832;60.658;2023-05-21T00:12:19;115.15;;;48.67;;
42726;SDS011;28372;56.832;60.658;2023-05-21T00:14:46;108.72;;;49.75;;
42726;SDS011;28372;56.832;60.658;2023-05-21T00:17:14;100.78;;;47.50;;
42726;SDS011;28372;56.832;60.658;2023-05-21T00:19:41;97.90;;;46.40;;
42726;SDS011;28372;56.832;60.658;2023-05-21T00:22:10;132.25;;;60.17;;
42726;SDS011;28372;56.832;60.658;2023-05-21T00:24:38;109.93;;;53.00;;
42726;SDS011;28372;56.832;60.658;2023-05-21T00:27:05;129.50;;;62.60;;
42726;SDS011;28372;56.832;60.658;2023-05-21T00:29:33;125.72;;;58.75;;
42726;SDS011;28372;56.832;60.658;2023-05-21T00:32:01;104.35;;;50.08;;
42726;SDS011;28372;56.832;60.658;2023-05-21T00:34:29;117.82;;;58.85;;
42726;SDS011;28372;56.832;60.658;2023-05-21T00:36:57;130.45;;;61.28;;
42726;SDS011;28372;56.832;60.658;2023-05-21T00:39:25;136.43;;;63.90;;
42726;SDS011;28372;56.832;60.658;2023-05-21T00:41:52;140.45;;;65.70;;
42726;SDS011;28372;56.832;60.658;2023-05-21T00:44:22;135.52;;;67.93;;
42726;SDS011;28372;56.832;60.658;2023-05-21T00:46:51;140.35;;;67.25;;
42726;SDS011;28372;56.832;60.658;2023-05-21T00:49:22;142.82;;;71.75;;
42726;SDS011;28372;56.832;60.658;2023-05-21T00:51:50;152.32;;;71.75;;
42726;SDS011;28372;56.832;60.658;2023-05-21T00:54:19;159.00;;;74.38;;
42726;SDS011;28372;56.832;60.658;2023-05-21T00:56:47;144.63;;;71.95;;
42726;SDS011;28372;56.832;60.658;2023-05-21T00:59:15;153.15;;;74.95;;
42726;SDS011;28372;56.832;60.658;2023-05-21T01:01:43;170.20;;;81.00;;
42726;SDS011;28372;56.832;60.658;2023-05-21T01:04:11;163.80;;;82.60;;
42726;SDS011;28372;56.832;60.658;2023-05-21T01:06:39;169.00;;;83.22;;
42726;SDS011;28372;56.832;60.658;2023-05-21T01:09:08;164.15;;;81.22;;
42726;SDS011;28372;56.832;60.658;2023-05-21T01:14:06;160.65;;;77.60;;
42726;SDS011;28372;56.832;60.658;2023-05-21T01:16:37;173.25;;;85.28;;
42726;SDS011;28372;56.832;60.658;2023-05-21T01:19:07;172.23;;;82.95;;
42726;SDS011;28372;56.832;60.658;2023-05-21T01:21:40;161.50;;;81.00;;
42726;SDS011;28372;56.832;60.658;2023-05-21T01:24:13;152.90;;;74.35;;
42726;SDS011;28372;56.832;60.658;2023-05-21T01:26:42;178.20;;;84.40;;
42726;SDS011;28372;56.832;60.658;2023-05-21T01:29:10;164.32;;;81.03;;
42726;SDS011;28372;56.832;60.658;2023-05-21T01:34:23;161.90;;;81.50;;
42726;SDS011;28372;56.832;60.658;2023-05-21T01:36:58;167.95;;;81.88;;
42726;SDS011;28372;56.832;60.658;2023-05-21T01:39:35;164.23;;;83.05;;
42726;SDS011;28372;56.832;60.658;2023-05-21T01:42:07;171.00;;;84.75;;
42726;SDS011;28372;56.832;60.658;2023-05-21T01:44:37;172.88;;;83.28;;
42726;SDS011;28372;56.832;60.658;2023-05-21T01:47:06;170.82;;;83.30;;
42726;SDS011;28372;56.832;60.658;2023-05-21T01:49:33;170.20;;;83.13;;
42726;SDS011;28372;56.832;60.658;2023-05-21T01:52:01;172.95;;;84.45;;
42726;SDS011;28372;56.832;60.658;2023-05-21T01:54:30;172.98;;;86.43;;
42726;SDS011;28372;56.832;60.658;2023-05-21T01:56:58;173.40;;;85.03;;
42726;SDS011;28372;56.832;60.658;2023-05-21T01:59:26;181.25;;;89.45;;
42726;SDS011;28372;56.832;60.658;2023-05-21T02:01:56;177.90;;;86.75;;
42726;SDS011;28372;56.832;60.658;2023-05-21T02:04:24;178.10;;;91.75;;
42726;SDS011;28372;56.832;60.658;2023-05-21T02:06:51;183.98;;;92.47;;
42726;SDS011;28372;56.832;60.658;2023-05-21T02:09:20;184.75;;;94.00;;
42726;SDS011;28372;56.832;60.658;2023-05-21T02:11:48;175.70;;;91.50;;
42726;SDS011;28372;56.832;60.658;2023-05-21T02:14:16;190.38;;;92.05;;
42726;SDS011;28372;56.832;60.658;2023-05-21T02:16:44;178.15;;;93.57;;
42726;SDS011;28372;56.832;60.658;2023-05-21T02:19:12;182.18;;;92.10;;
42726;SDS011;28372;56.832;60.658;2023-05-21T02:21:40;187.65;;;94.05;;
42726;SDS011;28372;56.832;60.658;2023-05-21T02:24:08;198.18;;;97.22;;
42726;SDS011;28372;56.832;60.658;2023-05-21T02:26:35;194.85;;;99.40;;
42726;SDS011;28372;56.832;60.658;2023-05-21T02:29:03;194.57;;;98.68;;
42726;SDS011;28372;56.832;60.658;2023-05-21T02:31:31;190.48;;;98.53;;
42726;SDS011;28372;56.832;60.658;2023-05-21T02:33:58;195.10;;;103.38;;
42726;SDS011;28372;56.832;60.658;2023-05-21T02:36:26;193.27;;;100.72;;
42726;SDS011;28372;56.832;60.658;2023-05-21T02:38:54;208.20;;;104.55;;
42726;SDS011;28372;56.832;60.658;2023-05-21T02:41:23;215.52;;;109.75;;
42726;SDS011;28372;56.832;60.658;2023-05-21T02:43:52;222.13;;;109.70;;
42726;SDS011;28372;56.832;60.658;2023-05-21T02:46:20;207.98;;;106.43;;
42726;SDS011;28372;56.832;60.658;2023-05-21T02:48:48;199.68;;;104.30;;
42726;SDS011;28372;56.832;60.658;2023-05-21T02:51:16;207.23;;;105.15;;
42726;SDS011;28372;56.832;60.658;2023-05-21T02:53:43;216.50;;;107.03;;
42726;SDS011;28372;56.832;60.658;2023-05-21T02:56:12;206.68;;;105.68;;
42726;SDS011;28372;56.832;60.658;2023-05-21T02:58:39;203.88;;;105.45;;
42726;SDS011;28372;56.832;60.658;2023-05-21T03:01:07;196.93;;;104.93;;
42726;SDS011;28372;56.832;60.658;2023-05-21T03:03:35;203.75;;;105.07;;
42726;SDS011;28372;56.832;60.658;2023-05-21T03:06:03;198.48;;;105.22;;
42726;SDS011;28372;56.832;60.658;2023-05-21T03:08:31;205.85;;;107.47;;
42726;SDS011;28372;56.832;60.658;2023-05-21T03:10:59;205.25;;;108.28;;
42726;SDS011;28372;56.832;60.658;2023-05-21T03:13:27;208.05;;;108.55;;
42726;SDS011;28372;56.832;60.658;2023-05-21T03:15:54;204.88;;;112.05;;
42726;SDS011;28372;56.832;60.658;2023-05-21T03:18:22;225.23;;;115.40;;
42726;SDS011;28372;56.832;60.658;2023-05-21T03:20:51;234.25;;;119.28;;
42726;SDS011;28372;56.832;60.658;2023-05-21T03:23:18;225.07;;;123.03;;
42726;SDS011;28372;56.832;60.658;2023-05-21T03:25:46;227.70;;;123.25;;
42726;SDS011;28372;56.832;60.658;2023-05-21T03:28:15;237.40;;;126.65;;
42726;SDS011;28372;56.832;60.658;2023-05-21T03:30:47;236.48;;;125.65;;
42726;SDS011;28372;56.832;60.658;2023-05-21T03:33:38;227.10;;;127.95;;
42726;SDS011;28372;56.832;60.658;2023-05-21T03:36:35;241.63;;;129.25;;
42726;SDS011;28372;56.832;60.658;2023-05-21T03:39:03;264.55;;;139.80;;
42726;SDS011;28372;56.832;60.658;2023-05-21T03:41:32;258.08;;;140.13;;
42726;SDS011;28372;56.832;60.658;2023-05-21T03:44:06;278.67;;;147.55;;
42726;SDS011;28372;56.832;60.658;2023-05-21T03:47:00;292.52;;;152.52;;
42726;SDS011;28372;56.832;60.658;2023-05-21T03:49:31;308.65;;;166.68;;
42726;SDS011;28372;56.832;60.658;2023-05-21T03:51:59;314.70;;;177.13;;
42726;SDS011;28372;56.832;60.658;2023-05-21T03:54:27;319.90;;;174.85;;
42726;SDS011;28372;56.832;60.658;2023-05-21T03:56:59;311.90;;;177.27;;
42726;SDS011;28372;56.832;60.658;2023-05-21T03:59:27;291.35;;;159.85;;
42726;SDS011;28372;56.832;60.658;2023-05-21T04:01:55;297.88;;;172.68;;
42726;SDS011;28372;56.832;60.658;2023-05-21T04:04:23;276.10;;;153.10;;
42726;SDS011;28372;56.832;60.658;2023-05-21T04:06:50;304.13;;;173.45;;
42726;SDS011;28372;56.832;60.658;2023-05-21T04:09:21;315.45;;;186.38;;
42726;SDS011;28372;56.832;60.658;2023-05-21T04:11:51;329.20;;;201.20;;
42726;SDS011;28372;56.832;60.658;2023-05-21T04:14:18;344.85;;;206.20;;
42726;SDS011;28372;56.832;60.658;2023-05-21T04:16:46;350.77;;;213.40;;
42726;SDS011;28372;56.832;60.658;2023-05-21T04:19:15;340.48;;;200.75;;
42726;SDS011;28372;56.832;60.658;2023-05-21T04:21:42;335.40;;;198.23;;
42726;SDS011;28372;56.832;60.658;2023-05-21T04:24:13;352.17;;;212.63;;
42726;SDS011;28372;56.832;60.658;2023-05-21T04:27:01;342.50;;;213.82;;
42726;SDS011;28372;56.832;60.658;2023-05-21T04:29:30;332.45;;;200.07;;
42726;SDS011;28372;56.832;60.658;2023-05-21T04:31:58;340.02;;;208.00;;
42726;SDS011;28372;56.832;60.658;2023-05-21T04:34:25;330.15;;;206.45;;
42726;SDS011;28372;56.832;60.658;2023-05-21T04:36:53;338.05;;;211.32;;
42726;SDS011;28372;56.832;60.658;2023-05-21T04:39:21;328.67;;;208.65;;
42726;SDS011;28372;56.832;60.658;2023-05-21T04:41:48;314.25;;;204.20;;
42726;SDS011;28372;56.832;60.658;2023-05-21T04:44:16;318.42;;;198.07;;
42726;SDS011;28372;56.832;60.658;2023-05-21T04:46:45;305.77;;;198.30;;
42726;SDS011;28372;56.832;60.658;2023-05-21T04:49:16;315.17;;;200.68;;
42726;SDS011;28372;56.832;60.658;2023-05-21T04:51:44;315.77;;;200.27;;
42726;SDS011;28372;56.832;60.658;2023-05-21T04:54:13;279.88;;;170.20;;
42726;SDS011;28372;56.832;60.658;2023-05-21T04:56:40;292.90;;;185.43;;
42726;SDS011;28372;56.832;60.658;2023-05-21T04:59:08;300.50;;;181.85;;
42726;SDS011;28372;56.832;60.658;2023-05-21T05:01:36;272.58;;;177.25;;
42726;SDS011;28372;56.832;60.658;2023-05-21T05:04:04;276.77;;;174.50;;
42726;SDS011;28372;56.832;60.658;2023-05-21T05:06:33;266.58;;;175.85;;
42726;SDS011;28372;56.832;60.658;2023-05-21T05:09:00;266.92;;;172.65;;
42726;SDS011;28372;56.832;60.658;2023-05-21T05:11:29;260.77;;;161.38;;
42726;SDS011;28372;56.832;60.658;2023-05-21T05:13:57;235.13;;;147.50;;
42726;SDS011;28372;56.832;60.658;2023-05-21T05:16:24;176.25;;;113.53;;
42726;SDS011;28372;56.832;60.658;2023-05-21T05:18:55;132.80;;;88.50;;
42726;SDS011;28372;56.832;60.658;2023-05-21T05:21:23;143.40;;;98.60;;
42726;SDS011;28372;56.832;60.658;2023-05-21T05:23:51;155.18;;;105.18;;
42726;SDS011;28372;56.832;60.658;2023-05-21T05:26:23;174.45;;;117.20;;
42726;SDS011;28372;56.832;60.658;2023-05-21T05:28:52;219.30;;;142.85;;
42726;SDS011;28372;56.832;60.658;2023-05-21T05:31:19;227.60;;;144.65;;
42726;SDS011;28372;56.832;60.658;2023-05-21T05:33:47;218.65;;;144.95;;
42726;SDS011;28372;56.832;60.658;2023-05-21T05:36:15;208.52;;;133.88;;
42726;SDS011;28372;56.832;60.658;2023-05-21T05:38:43;138.20;;;92.43;;
42726;SDS011;28372;56.832;60.658;2023-05-21T05:41:10;87.70;;;55.15;;
42726;SDS011;28372;56.832;60.658;2023-05-21T05:43:38;80.22;;;54.63;;
42726;SDS011;28372;56.832;60.658;2023-05-21T05:46:06;79.22;;;53.55;;
42726;SDS011;28372;56.832;60.658;2023-05-21T05:48:34;78.00;;;52.63;;
42726;SDS011;28372;56.832;60.658;2023-05-21T05:51:02;79.40;;;53.33;;
42726;SDS011;28372;56.832;60.658;2023-05-21T05:53:30;71.70;;;51.65;;
42726;SDS011;28372;56.832;60.658;2023-05-21T05:55:58;75.25;;;52.47;;
42726;SDS011;28372;56.832;60.658;2023-05-21T05:58:31;81.20;;;53.15;;
42726;SDS011;28372;56.832;60.658;2023-05-21T06:01:08;80.93;;;56.97;;
42726;SDS011;28372;56.832;60.658;2023-05-21T06:03:36;86.32;;;58.42;;
42726;SDS011;28372;56.832;60.658;2023-05-21T06:06:10;82.25;;;54.90;;
42726;SDS011;28372;56.832;60.658;2023-05-21T06:08:38;74.70;;;53.15;;
42726;SDS011;28372;56.832;60.658;2023-05-21T06:11:06;114.68;;;78.97;;
42726;SDS011;28372;56.832;60.658;2023-05-21T06:13:34;144.88;;;99.28;;
42726;SDS011;28372;56.832;60.658;2023-05-21T06:16:04;138.40;;;96.63;;
42726;SDS011;28372;56.832;60.658;2023-05-21T06:18:32;133.27;;;92.45;;
42726;SDS011;28372;56.832;60.658;2023-05-21T06:21:00;133.82;;;92.85;;
42726;SDS011;28372;56.832;60.658;2023-05-21T06:23:28;118.13;;;83.65;;
42726;SDS011;28372;56.832;60.658;2023-05-21T06:25:59;117.60;;;84.75;;
42726;SDS011;28372;56.832;60.658;2023-05-21T06:28:27;98.03;;;68.88;;
42726;SDS011;28372;56.832;60.658;2023-05-21T06:30:54;104.95;;;72.93;;
42726;SDS011;28372;56.832;60.658;2023-05-21T06:33:24;109.50;;;76.25;;
42726;SDS011;28372;56.832;60.658;2023-05-21T06:35:53;110.97;;;77.65;;
42726;SDS011;28372;56.832;60.658;2023-05-21T06:38:22;110.82;;;76.05;;
42726;SDS011;28372;56.832;60.658;2023-05-21T06:40:51;87.75;;;61.40;;
42726;SDS011;28372;56.832;60.658;2023-05-21T06:43:36;81.18;;;54.72;;
42726;SDS011;28372;56.832;60.658;2023-05-21T06:46:22;83.25;;;56.55;;
42726;SDS011;28372;56.832;60.658;2023-05-21T06:48:51;54.28;;;39.15;;
42726;SDS011;28372;56.832;60.658;2023-05-21T06:51:19;44.28;;;30.23;;
42726;SDS011;28372;56.832;60.658;2023-05-21T06:53:47;43.88;;;33.33;;
42726;SDS011;28372;56.832;60.658;2023-05-21T06:56:16;51.45;;;38.83;;
42726;SDS011;28372;56.832;60.658;2023-05-21T06:58:45;57.72;;;41.05;;
42726;SDS011;28372;56.832;60.658;2023-05-21T07:01:14;55.00;;;41.45;;
42726;SDS011;28372;56.832;60.658;2023-05-21T07:03:44;54.35;;;42.00;;
42726;SDS011;28372;56.832;60.658;2023-05-21T07:06:12;61.92;;;42.08;;
42726;SDS011;28372;56.832;60.658;2023-05-21T07:08:40;56.72;;;41.78;;
42726;SDS011;28372;56.832;60.658;2023-05-21T07:11:08;60.50;;;43.38;;
42726;SDS011;28372;56.832;60.658;2023-05-21T07:13:36;57.97;;;43.60;;
42726;SDS011;28372;56.832;60.658;2023-05-21T07:16:04;57.80;;;43.60;;
42726;SDS011;28372;56.832;60.658;2023-05-21T07:18:32;55.53;;;41.40;;
42726;SDS011;28372;56.832;60.658;2023-05-21T07:20:59;56.92;;;42.03;;
42726;SDS011;28372;56.832;60.658;2023-05-21T07:23:27;58.25;;;39.22;;
42726;SDS011;28372;56.832;60.658;2023-05-21T07:25:55;55.63;;;40.00;;
42726;SDS011;28372;56.832;60.658;2023-05-21T07:28:23;54.22;;;40.00;;
42726;SDS011;28372;56.832;60.658;2023-05-21T07:30:51;50.85;;;36.53;;
42726;SDS011;28372;56.832;60.658;2023-05-21T07:33:25;48.38;;;36.90;;
42726;SDS011;28372;56.832;60.658;2023-05-21T07:35:53;51.30;;;37.28;;
42726;SDS011;28372;56.832;60.658;2023-05-21T07:38:22;55.70;;;39.35;;
42726;SDS011;28372;56.832;60.658;2023-05-21T07:40:49;54.38;;;38.28;;
42726;SDS011;28372;56.832;60.658;2023-05-21T07:43:17;54.00;;;39.22;;
42726;SDS011;28372;56.832;60.658;2023-05-21T07:45:45;50.47;;;37.42;;
42726;SDS011;28372;56.832;60.658;2023-05-21T07:48:13;54.72;;;38.88;;
42726;SDS011;28372;56.832;60.658;2023-05-21T07:50:51;49.67;;;38.22;;
42726;SDS011;28372;56.832;60.658;2023-05-21T07:53:19;51.05;;;38.50;;
42726;SDS011;28372;56.832;60.658;2023-05-21T07:55:48;52.08;;;35.25;;
42726;SDS011;28372;56.832;60.658;2023-05-21T07:58:21;54.38;;;38.08;;
42726;SDS011;28372;56.832;60.658;2023-05-21T08:00:49;50.10;;;38.53;;
42726;SDS011;28372;56.832;60.658;2023-05-21T08:03:17;54.85;;;39.78;;
42726;SDS011;28372;56.832;60.658;2023-05-21T08:05:46;52.65;;;39.40;;
42726;SDS011;28372;56.832;60.658;2023-05-21T08:08:17;55.92;;;38.40;;
42726;SDS011;28372;56.832;60.658;2023-05-21T08:10:45;53.50;;;40.47;;
42726;SDS011;28372;56.832;60.658;2023-05-21T08:13:14;53.58;;;42.13;;
42726;SDS011;28372;56.832;60.658;2023-05-21T08:15:45;63.35;;;43.40;;
42726;SDS011;28372;56.832;60.658;2023-05-21T08:18:14;56.58;;;41.05;;
42726;SDS011;28372;56.832;60.658;2023-05-21T08:20:45;57.60;;;41.03;;
42726;SDS011;28372;56.832;60.658;2023-05-21T08:23:17;65.35;;;44.33;;
42726;SDS011;28372;56.832;60.658;2023-05-21T08:28:17;58.90;;;44.03;;
42726;SDS011;28372;56.832;60.658;2023-05-21T08:30:45;62.47;;;45.28;;
42726;SDS011;28372;56.832;60.658;2023-05-21T08:33:14;64.53;;;46.05;;
42726;SDS011;28372;56.832;60.658;2023-05-21T08:38:21;66.03;;;46.72;;
42726;SDS011;28372;56.832;60.658;2023-05-21T08:41:12;67.82;;;47.63;;
42726;SDS011;28372;56.832;60.658;2023-05-21T08:43:41;65.35;;;47.13;;
42726;SDS011;28372;56.832;60.658;2023-05-21T08:46:16;64.68;;;48.05;;
42726;SDS011;28372;56.832;60.658;2023-05-21T08:48:46;70.00;;;49.60;;
42726;SDS011;28372;56.832;60.658;2023-05-21T08:51:15;65.45;;;49.50;;
42726;SDS011;28372;56.832;60.658;2023-05-21T08:53:49;70.93;;;49.92;;
42726;SDS011;28372;56.832;60.658;2023-05-21T08:56:18;70.95;;;50.50;;
42726;SDS011;28372;56.832;60.658;2023-05-21T08:58:57;76.63;;;52.15;;
42726;SDS011;28372;56.832;60.658;2023-05-21T09:01:30;73.97;;;51.00;;
42726;SDS011;28372;56.832;60.658;2023-05-21T09:04:25;69.93;;;49.53;;
42726;SDS011;28372;56.832;60.658;2023-05-21T09:06:54;73.50;;;51.67;;
42726;SDS011;28372;56.832;60.658;2023-05-21T09:09:48;76.03;;;52.67;;
42726;SDS011;28372;56.832;60.658;2023-05-21T09:12:21;75.50;;;51.65;;
42726;SDS011;28372;56.832;60.658;2023-05-21T09:14:51;74.00;;;52.88;;
42726;SDS011;28372;56.832;60.658;2023-05-21T09:17:25;75.93;;;52.47;;
42726;SDS011;28372;56.832;60.658;2023-05-21T09:22:52;77.20;;;53.13;;
42726;SDS011;28372;56.832;60.658;2023-05-21T09:25:25;71.55;;;53.40;;
42726;SDS011;28372;56.832;60.658;2023-05-21T09:28:00;80.95;;;55.92;;
42726;SDS011;28372;56.832;60.658;2023-05-21T09:30:28;82.40;;;54.65;;
42726;SDS011;28372;56.832;60.658;2023-05-21T09:32:59;78.43;;;53.63;;
42726;SDS011;28372;56.832;60.658;2023-05-21T09:35:28;73.45;;;53.92;;
42726;SDS011;28372;56.832;60.658;2023-05-21T09:37:55;75.20;;;54.55;;
42726;SDS011;28372;56.832;60.658;2023-05-21T09:40:23;73.90;;;51.83;;
42726;SDS011;28372;56.832;60.658;2023-05-21T09:42:52;71.53;;;53.35;;
42726;SDS011;28372;56.832;60.658;2023-05-21T09:45:21;74.43;;;53.70;;
42726;SDS011;28372;56.832;60.658;2023-05-21T09:47:52;71.95;;;51.30;;
42726;SDS011;28372;56.832;60.658;2023-05-21T09:50:22;73.30;;;51.63;;
42726;SDS011;28372;56.832;60.658;2023-05-21T09:52:53;73.30;;;51.17;;
42726;SDS011;28372;56.832;60.658;2023-05-21T09:55:22;69.70;;;49.70;;
42726;SDS011;28372;56.832;60.658;2023-05-21T09:57:50;63.20;;;45.55;;
42726;SDS011;28372;56.832;60.658;2023-05-21T10:02:48;63.38;;;46.75;;
42726;SDS011;28372;56.832;60.658;2023-05-21T10:05:25;60.47;;;45.15;;
42726;SDS011;28372;56.832;60.658;2023-05-21T10:07:58;63.55;;;47.72;;
42726;SDS011;28372;56.832;60.658;2023-05-21T10:10:30;65.45;;;48.38;;
42726;SDS011;28372;56.832;60.658;2023-05-21T10:13:04;69.72;;;49.28;;
42726;SDS011;28372;56.832;60.658;2023-05-21T10:15:39;65.82;;;47.40;;
42726;SDS011;28372;56.832;60.658;2023-05-21T10:18:10;70.18;;;47.88;;
42726;SDS011;28372;56.832;60.658;2023-05-21T10:20:40;63.58;;;47.28;;
42726;SDS011;28372;56.832;60.658;2023-05-21T10:23:08;62.53;;;45.83;;
42726;SDS011;28372;56.832;60.658;2023-05-21T10:25:36;64.10;;;47.22;;
42726;SDS011;28372;56.832;60.658;2023-05-21T10:28:05;61.80;;;45.45;;
42726;SDS011;28372;56.832;60.658;2023-05-21T10:30:33;57.50;;;41.08;;
42726;SDS011;28372;56.832;60.658;2023-05-21T10:33:03;56.13;;;41.50;;
42726;SDS011;28372;56.832;60.658;2023-05-21T10:35:32;56.13;;;41.13;;
42726;SDS011;28372;56.832;60.658;2023-05-21T10:38:01;55.53;;;40.85;;
42726;SDS011;28372;56.832;60.658;2023-05-21T10:40:31;65.25;;;42.58;;
42726;SDS011;28372;56.832;60.658;2023-05-21T10:43:08;57.63;;;41.35;;
42726;SDS011;28372;56.832;60.658;2023-05-21T10:51:40;58.15;;;41.67;;
42726;SDS011;28372;56.832;60.658;2023-05-21T10:57:33;60.15;;;42.03;;
42726;SDS011;28372;56.832;60.658;2023-05-21T11:00:23;61.53;;;42.28;;
42726;SDS011;28372;56.832;60.658;2023-05-21T11:02:53;63.88;;;42.75;;
42726;SDS011;28372;56.832;60.658;2023-05-21T11:08:29;58.95;;;39.80;;
42726;SDS011;28372;56.832;60.658;2023-05-21T11:11:00;61.30;;;41.70;;
42726;SDS011;28372;56.832;60.658;2023-05-21T11:13:28;59.65;;;42.42;;
42726;SDS011;28372;56.832;60.658;2023-05-21T11:16:15;59.33;;;42.28;;
42726;SDS011;28372;56.832;60.658;2023-05-21T11:21:15;62.75;;;43.88;;
42726;SDS011;28372;56.832;60.658;2023-05-21T11:26:21;68.18;;;45.85;;
42726;SDS011;28372;56.832;60.658;2023-05-21T11:28:50;55.83;;;40.33;;
42726;SDS011;28372;56.832;60.658;2023-05-21T11:31:38;64.32;;;44.05;;
42726;SDS011;28372;56.832;60.658;2023-05-21T11:34:21;69.40;;;45.17;;
42726;SDS011;28372;56.832;60.658;2023-05-21T11:39:44;62.47;;;44.22;;
42726;SDS011;28372;56.832;60.658;2023-05-21T11:42:20;61.88;;;42.58;;
42726;SDS011;28372;56.832;60.658;2023-05-21T11:44:58;62.50;;;42.47;;
42726;SDS011;28372;56.832;60.658;2023-05-21T11:47:32;68.22;;;42.42;;
42726;SDS011;28372;56.832;60.658;2023-05-21T11:50:00;63.83;;;44.30;;
42726;SDS011;28372;56.832;60.658;2023-05-21T11:52:32;64.72;;;42.15;;
42726;SDS011;28372;56.832;60.658;2023-05-21T11:54:59;59.40;;;41.35;;
42726;SDS011;28372;56.832;60.658;2023-05-21T11:57:29;61.75;;;42.05;;
42726;SDS011;28372;56.832;60.658;2023-05-21T11:59:58;63.50;;;41.08;;
42726;SDS011;28372;56.832;60.658;2023-05-21T12:02:32;56.92;;;40.13;;
42726;SDS011;28372;56.832;60.658;2023-05-21T12:05:00;59.17;;;39.33;;
42726;SDS011;28372;56.832;60.658;2023-05-21T12:07:29;56.28;;;36.80;;
42726;SDS011;28372;56.832;60.658;2023-05-21T12:09:57;58.03;;;38.75;;
42726;SDS011;28372;56.832;60.658;2023-05-21T12:12:25;58.10;;;38.15;;
42726;SDS011;28372;56.832;60.658;2023-05-21T12:15:11;58.72;;;34.85;;
42726;SDS011;28372;56.832;60.658;2023-05-21T12:17:39;54.50;;;36.67;;
42726;SDS011;28372;56.832;60.658;2023-05-21T12:20:07;53.72;;;35.55;;
42726;SDS011;28372;56.832;60.658;2023-05-21T12:22:39;58.83;;;38.90;;
42726;SDS011;28372;56.832;60.658;2023-05-21T12:25:09;60.38;;;40.38;;
42726;SDS011;28372;56.832;60.658;2023-05-21T12:27:38;57.47;;;38.53;;
42726;SDS011;28372;56.832;60.658;2023-05-21T12:30:08;61.10;;;40.72;;
42726;SDS011;28372;56.832;60.658;2023-05-21T12:32:36;58.17;;;39.80;;
42726;SDS011;28372;56.832;60.658;2023-05-21T12:35:19;60.25;;;37.75;;
42726;SDS011;28372;56.832;60.658;2023-05-21T12:37:49;56.22;;;37.83;;
42726;SDS011;28372;56.832;60.658;2023-05-21T12:40:17;56.65;;;38.70;;
42726;SDS011;28372;56.832;60.658;2023-05-21T12:42:46;56.60;;;36.67;;
42726;SDS011;28372;56.832;60.658;2023-05-21T12:45:14;52.08;;;35.58;;
42726;SDS011;28372;56.832;60.658;2023-05-21T12:47:46;54.50;;;37.08;;
42726;SDS011;28372;56.832;60.658;2023-05-21T12:50:18;55.78;;;36.78;;
42726;SDS011;28372;56.832;60.658;2023-05-21T12:52:47;58.35;;;37.10;;
42726;SDS011;28372;56.832;60.658;2023-05-21T12:55:15;50.95;;;34.55;;
42726;SDS011;28372;56.832;60.658;2023-05-21T12:57:43;49.58;;;34.00;;
42726;SDS011;28372;56.832;60.658;2023-05-21T13:00:11;52.50;;;33.35;;
42726;SDS011;28372;56.832;60.658;2023-05-21T13:02:40;51.03;;;34.28;;
42726;SDS011;28372;56.832;60.658;2023-05-21T13:05:19;50.85;;;34.42;;
42726;SDS011;28372;56.832;60.658;2023-05-21T13:07:47;53.05;;;35.30;;
42726;SDS011;28372;56.832;60.658;2023-05-21T13:10:17;52.33;;;34.33;;
42726;SDS011;28372;56.832;60.658;2023-05-21T13:12:46;50.90;;;34.95;;
42726;SDS011;28372;56.832;60.658;2023-05-21T13:15:14;54.63;;;34.13;;
42726;SDS011;28372;56.832;60.658;2023-05-21T13:17:42;50.80;;;34.17;;
42726;SDS011;28372;56.832;60.658;2023-05-21T13:20:10;58.33;;;33.83;;
42726;SDS011;28372;56.832;60.658;2023-05-21T13:22:42;49.97;;;34.75;;
42726;SDS011;28372;56.832;60.658;2023-05-21T13:25:14;49.88;;;32.83;;
42726;SDS011;28372;56.832;60.658;2023-05-21T13:27:48;57.95;;;34.22;;
42726;SDS011;28372;56.832;60.658;2023-05-21T13:30:17;50.88;;;34.08;;
42726;SDS011;28372;56.832;60.658;2023-05-21T13:32:46;49.33;;;32.72;;
42726;SDS011;28372;56.832;60.658;2023-05-21T13:35:14;57.05;;;33.65;;
42726;SDS011;28372;56.832;60.658;2023-05-21T13:37:43;51.70;;;33.15;;
42726;SDS011;28372;56.832;60.658;2023-05-21T13:40:12;49.92;;;32.65;;
42726;SDS011;28372;56.832;60.658;2023-05-21T13:42:46;52.55;;;35.08;;
42726;SDS011;28372;56.832;60.658;2023-05-21T13:45:17;52.17;;;33.72;;
42726;SDS011;28372;56.832;60.658;2023-05-21T13:47:46;50.13;;;30.95;;
42726;SDS011;28372;56.832;60.658;2023-05-21T13:50:14;50.45;;;32.25;;
42726;SDS011;28372;56.832;60.658;2023-05-21T13:52:43;51.85;;;33.97;;
42726;SDS011;28372;56.832;60.658;2023-05-21T13:55:11;48.88;;;32.70;;
42726;SDS011;28372;56.832;60.658;2023-05-21T13:57:38;50.50;;;32.88;;
42726;SDS011;28372;56.832;60.658;2023-05-21T14:00:06;49.22;;;31.35;;
42726;SDS011;28372;56.832;60.658;2023-05-21T14:02:36;49.30;;;32.97;;
42726;SDS011;28372;56.832;60.658;2023-05-21T14:05:04;55.45;;;33.17;;
42726;SDS011;28372;56.832;60.658;2023-05-21T14:07:32;50.88;;;33.13;;
42726;SDS011;28372;56.832;60.658;2023-05-21T14:10:00;55.67;;;32.13;;
42726;SDS011;28372;56.832;60.658;2023-05-21T14:12:30;53.83;;;34.80;;
42726;SDS011;28372;56.832;60.658;2023-05-21T14:14:59;54.38;;;33.58;;
42726;SDS011;28372;56.832;60.658;2023-05-21T14:17:32;49.95;;;32.47;;
42726;SDS011;28372;56.832;60.658;2023-05-21T14:19:59;51.42;;;33.05;;
42726;SDS011;28372;56.832;60.658;2023-05-21T14:22:30;52.90;;;33.58;;
42726;SDS011;28372;56.832;60.658;2023-05-21T14:24:58;56.20;;;33.80;;
42726;SDS011;28372;56.832;60.658;2023-05-21T14:27:26;50.20;;;33.13;;
42726;SDS011;28372;56.832;60.658;2023-05-21T14:29:53;56.72;;;33.78;;
42726;SDS011;28372;56.832;60.658;2023-05-21T14:32:21;53.15;;;33.45;;
42726;SDS011;28372;56.832;60.658;2023-05-21T14:34:49;55.72;;;34.47;;
42726;SDS011;28372;56.832;60.658;2023-05-21T14:37:16;53.92;;;32.53;;
42726;SDS011;28372;56.832;60.658;2023-05-21T14:39:44;50.53;;;33.35;;
42726;SDS011;28372;56.832;60.658;2023-05-21T14:42:12;49.65;;;32.05;;
42726;SDS011;28372;56.832;60.658;2023-05-21T14:44:39;48.15;;;32.40;;
42726;SDS011;28372;56.832;60.658;2023-05-21T14:47:07;51.47;;;31.85;;
42726;SDS011;28372;56.832;60.658;2023-05-21T14:49:35;48.85;;;30.42;;
42726;SDS011;28372;56.832;60.658;2023-05-21T14:52:02;50.85;;;30.85;;
42726;SDS011;28372;56.832;60.658;2023-05-21T14:54:30;51.95;;;31.92;;